Houlka, Mississippi
Current Conditions -  °F | °C
As of 5:53 PM on Monday 24 Nov 2014 (Local Time) from KTUP Reporting Station
Clear Clear  
Wind Chill: 51°   Ceiling: Unl
Heat Index: 51°   Visibility: 10mi
Dew Point: 33°   Wind: 3mph
Humidity: 50%   Direction: 290°WNW
Pressure: 29.99"   Gusts: NA
Location:  34.04°N, 89.02°W
Report Text: KTUP 242353Z 29003KT 10SM CLR 11/01 A2999 RMK AO2 SLP155 T01060006 10161 20106 53031
Loading
Personal Weather Stations






























Interactive Weather Map New forecast layout! Learn more

10-Day Weather Forecast

Advertisements
Track Severe Weather on mobile